sensor_id;sensor_type;location;lat;lon;timestamp;pressure;altitude;pressure_sealevel;temperature;humidity
32733;BME280;11867;51.198;11.966;2023-07-13T00:00:18;100173.88;;;22.76;64.84
32733;BME280;11867;51.198;11.966;2023-07-13T00:01:41;100172.84;;;22.84;64.13
32733;BME280;11867;51.198;11.966;2023-07-13T00:03:04;100181.03;;;22.77;64.43
32733;BME280;11867;51.198;11.966;2023-07-13T00:04:27;100182.25;;;22.41;65.21
32733;BME280;11867;51.198;11.966;2023-07-13T00:05:57;100180.91;;;22.15;66.05
32733;BME280;11867;51.198;11.966;2023-07-13T00:07:20;100187.69;;;22.33;65.71
32733;BME280;11867;51.198;11.966;2023-07-13T00:08:42;100190.09;;;22.35;65.37
32733;BME280;11867;51.198;11.966;2023-07-13T00:10:06;100196.88;;;22.38;66.01
32733;BME280;11867;51.198;11.966;2023-07-13T00:11:29;100195.81;;;22.62;65.31
32733;BME280;11867;51.198;11.966;2023-07-13T00:12:53;100194.78;;;22.31;66.06
32733;BME280;11867;51.198;11.966;2023-07-13T00:14:16;100191.88;;;22.08;67.01
32733;BME280;11867;51.198;11.966;2023-07-13T00:15:39;100199.53;;;22.14;66.56
32733;BME280;11867;51.198;11.966;2023-07-13T00:17:02;100199.22;;;22.35;66.30
32733;BME280;11867;51.198;11.966;2023-07-13T00:18:26;100196.75;;;22.69;65.25
32733;BME280;11867;51.198;11.966;2023-07-13T00:19:52;100193.97;;;22.69;65.37
32733;BME280;11867;51.198;11.966;2023-07-13T00:21:14;100195.59;;;22.70;64.81
32733;BME280;11867;51.198;11.966;2023-07-13T00:22:37;100196.81;;;22.92;64.29
32733;BME280;11867;51.198;11.966;2023-07-13T00:24:00;100201.56;;;22.92;64.09
32733;BME280;11867;51.198;11.966;2023-07-13T00:25:22;100208.09;;;22.61;64.85
32733;BME280;11867;51.198;11.966;2023-07-13T00:26:49;100214.31;;;22.54;64.91
32733;BME280;11867;51.198;11.966;2023-07-13T00:28:11;100220.31;;;22.56;64.62
32733;BME280;11867;51.198;11.966;2023-07-13T00:29:34;100218.97;;;22.69;64.72
32733;BME280;11867;51.198;11.966;2023-07-13T00:30:56;100223.59;;;22.62;64.60
32733;BME280;11867;51.198;11.966;2023-07-13T00:32:19;100224.63;;;22.53;65.27
32733;BME280;11867;51.198;11.966;2023-07-13T00:33:43;100230.66;;;22.59;64.74
32733;BME280;11867;51.198;11.966;2023-07-13T00:35:07;100226.94;;;22.16;66.25
32733;BME280;11867;51.198;11.966;2023-07-13T00:36:30;100224.09;;;22.28;65.18
32733;BME280;11867;51.198;11.966;2023-07-13T00:37:53;100233.56;;;22.11;66.00
32733;BME280;11867;51.198;11.966;2023-07-13T00:39:15;100238.69;;;22.25;65.37
32733;BME280;11867;51.198;11.966;2023-07-13T00:40:38;100230.53;;;22.52;64.69
32733;BME280;11867;51.198;11.966;2023-07-13T00:42:00;100234.56;;;22.54;64.03
32733;BME280;11867;51.198;11.966;2023-07-13T00:43:27;100239.16;;;22.66;63.35
32733;BME280;11867;51.198;11.966;2023-07-13T00:45:04;100236.81;;;22.88;63.15
32733;BME280;11867;51.198;11.966;2023-07-13T00:46:28;100232.56;;;22.94;63.01
32733;BME280;11867;51.198;11.966;2023-07-13T00:47:51;100239.81;;;22.98;62.98
32733;BME280;11867;51.198;11.966;2023-07-13T00:49:20;100248.38;;;22.90;63.46
32733;BME280;11867;51.198;11.966;2023-07-13T00:50:43;100237.63;;;23.08;62.65
32733;BME280;11867;51.198;11.966;2023-07-13T00:52:08;100236.84;;;23.07;61.95
32733;BME280;11867;51.198;11.966;2023-07-13T00:53:32;100236.25;;;23.17;60.94
32733;BME280;11867;51.198;11.966;2023-07-13T00:54:56;100238.41;;;23.28;60.57
32733;BME280;11867;51.198;11.966;2023-07-13T00:56:19;100244.41;;;23.30;60.79
32733;BME280;11867;51.198;11.966;2023-07-13T00:57:43;100250.50;;;22.96;63.16
32733;BME280;11867;51.198;11.966;2023-07-13T00:59:08;100248.53;;;22.97;63.29
32733;BME280;11867;51.198;11.966;2023-07-13T01:00:33;100246.69;;;22.85;63.85
32733;BME280;11867;51.198;11.966;2023-07-13T01:01:57;100248.97;;;22.80;64.72
32733;BME280;11867;51.198;11.966;2023-07-13T01:03:19;100251.25;;;22.74;65.58
32733;BME280;11867;51.198;11.966;2023-07-13T01:04:44;100253.41;;;22.45;66.31
32733;BME280;11867;51.198;11.966;2023-07-13T01:06:06;100248.47;;;22.39;66.73
32733;BME280;11867;51.198;11.966;2023-07-13T01:07:30;100239.59;;;22.49;66.25
32733;BME280;11867;51.198;11.966;2023-07-13T01:08:53;100240.94;;;22.74;64.07
32733;BME280;11867;51.198;11.966;2023-07-13T01:10:16;100250.66;;;22.84;63.89
32733;BME280;11867;51.198;11.966;2023-07-13T01:11:39;100246.91;;;22.96;62.82
32733;BME280;11867;51.198;11.966;2023-07-13T01:13:02;100240.63;;;22.99;62.49
32733;BME280;11867;51.198;11.966;2023-07-13T01:14:25;100242.19;;;22.96;61.60
32733;BME280;11867;51.198;11.966;2023-07-13T01:15:49;100241.34;;;22.96;61.24
32733;BME280;11867;51.198;11.966;2023-07-13T01:17:12;100241.88;;;22.82;61.46
32733;BME280;11867;51.198;11.966;2023-07-13T01:18:36;100239.69;;;22.72;61.30
32733;BME280;11867;51.198;11.966;2023-07-13T01:20:00;100242.25;;;22.81;61.55
32733;BME280;11867;51.198;11.966;2023-07-13T01:21:24;100244.16;;;22.76;60.64
32733;BME280;11867;51.198;11.966;2023-07-13T01:22:46;100243.63;;;22.90;60.62
32733;BME280;11867;51.198;11.966;2023-07-13T01:24:10;100250.00;;;22.91;60.75
32733;BME280;11867;51.198;11.966;2023-07-13T01:25:32;100251.16;;;22.90;60.66
32733;BME280;11867;51.198;11.966;2023-07-13T01:26:55;100247.81;;;22.81;60.37
32733;BME280;11867;51.198;11.966;2023-07-13T01:28:18;100248.38;;;22.90;60.35
32733;BME280;11867;51.198;11.966;2023-07-13T01:29:41;100246.63;;;22.82;59.99
32733;BME280;11867;51.198;11.966;2023-07-13T01:31:04;100253.66;;;22.95;59.79
32733;BME280;11867;51.198;11.966;2023-07-13T01:32:26;100254.75;;;22.90;60.19
32733;BME280;11867;51.198;11.966;2023-07-13T01:33:49;100252.13;;;22.78;60.29
32733;BME280;11867;51.198;11.966;2023-07-13T01:35:12;100253.19;;;22.73;60.48
32733;BME280;11867;51.198;11.966;2023-07-13T01:36:36;100252.31;;;22.69;60.54
32733;BME280;11867;51.198;11.966;2023-07-13T01:37:58;100242.53;;;22.75;60.50
32733;BME280;11867;51.198;11.966;2023-07-13T01:39:22;100254.31;;;22.88;59.88
32733;BME280;11867;51.198;11.966;2023-07-13T01:40:46;100256.06;;;22.96;59.86
32733;BME280;11867;51.198;11.966;2023-07-13T01:42:08;100253.88;;;23.06;60.30
32733;BME280;11867;51.198;11.966;2023-07-13T01:43:31;100258.03;;;22.96;60.08
32733;BME280;11867;51.198;11.966;2023-07-13T01:44:54;100261.63;;;22.77;60.73
32733;BME280;11867;51.198;11.966;2023-07-13T01:46:17;100255.50;;;22.68;60.64
32733;BME280;11867;51.198;11.966;2023-07-13T01:47:44;100252.03;;;22.74;60.60
32733;BME280;11867;51.198;11.966;2023-07-13T01:49:06;100246.09;;;22.56;61.11
32733;BME280;11867;51.198;11.966;2023-07-13T01:50:29;100247.22;;;22.52;61.98
32733;BME280;11867;51.198;11.966;2023-07-13T01:51:52;100245.53;;;22.47;62.08
32733;BME280;11867;51.198;11.966;2023-07-13T01:53:15;100247.56;;;22.50;62.14
32733;BME280;11867;51.198;11.966;2023-07-13T01:54:37;100249.31;;;22.59;61.71
32733;BME280;11867;51.198;11.966;2023-07-13T01:56:00;100251.44;;;22.46;61.94
32733;BME280;11867;51.198;11.966;2023-07-13T01:57:22;100256.91;;;22.42;61.91
32733;BME280;11867;51.198;11.966;2023-07-13T01:58:45;100260.78;;;22.38;62.24
32733;BME280;11867;51.198;11.966;2023-07-13T02:00:09;100262.03;;;22.40;62.27
32733;BME280;11867;51.198;11.966;2023-07-13T02:01:32;100255.22;;;22.38;62.42
32733;BME280;11867;51.198;11.966;2023-07-13T02:02:55;100258.00;;;22.38;62.54
32733;BME280;11867;51.198;11.966;2023-07-13T02:04:18;100261.22;;;22.40;62.43
32733;BME280;11867;51.198;11.966;2023-07-13T02:05:40;100255.31;;;22.41;62.00
32733;BME280;11867;51.198;11.966;2023-07-13T02:07:04;100264.34;;;22.38;62.29
32733;BME280;11867;51.198;11.966;2023-07-13T02:08:27;100261.53;;;22.03;63.05
32733;BME280;11867;51.198;11.966;2023-07-13T02:09:49;100263.94;;;22.20;62.77
32733;BME280;11867;51.198;11.966;2023-07-13T02:11:12;100261.50;;;22.34;62.83
32733;BME280;11867;51.198;11.966;2023-07-13T02:12:34;100247.34;;;22.40;62.42
32733;BME280;11867;51.198;11.966;2023-07-13T02:13:57;100261.44;;;22.50;62.19
32733;BME280;11867;51.198;11.966;2023-07-13T02:15:19;100262.34;;;22.54;62.54
32733;BME280;11867;51.198;11.966;2023-07-13T02:16:42;100259.03;;;22.49;62.58
32733;BME280;11867;51.198;11.966;2023-07-13T02:18:04;100269.78;;;22.50;62.15
32733;BME280;11867;51.198;11.966;2023-07-13T02:19:28;100265.47;;;22.53;62.25
32733;BME280;11867;51.198;11.966;2023-07-13T02:20:50;100262.63;;;22.49;62.29
32733;BME280;11867;51.198;11.966;2023-07-13T02:22:14;100265.81;;;22.32;63.13
32733;BME280;11867;51.198;11.966;2023-07-13T02:23:36;100256.09;;;22.42;62.76
32733;BME280;11867;51.198;11.966;2023-07-13T02:24:59;100259.59;;;22.39;63.14
32733;BME280;11867;51.198;11.966;2023-07-13T02:26:21;100262.66;;;22.33;63.19
32733;BME280;11867;51.198;11.966;2023-07-13T02:27:43;100257.69;;;22.23;63.64
32733;BME280;11867;51.198;11.966;2023-07-13T02:29:05;100252.38;;;22.18;63.42
32733;BME280;11867;51.198;11.966;2023-07-13T02:30:29;100263.06;;;22.00;64.44
32733;BME280;11867;51.198;11.966;2023-07-13T02:31:52;100253.84;;;21.80;65.01
32733;BME280;11867;51.198;11.966;2023-07-13T02:33:13;100253.69;;;21.73;65.61
32733;BME280;11867;51.198;11.966;2023-07-13T02:34:36;100257.41;;;21.81;65.37
32733;BME280;11867;51.198;11.966;2023-07-13T02:35:58;100254.84;;;21.72;65.35
32733;BME280;11867;51.198;11.966;2023-07-13T02:37:22;100250.81;;;21.69;65.71
32733;BME280;11867;51.198;11.966;2023-07-13T02:38:44;100247.69;;;21.71;65.52
32733;BME280;11867;51.198;11.966;2023-07-13T02:40:08;100256.72;;;21.68;66.03
32733;BME280;11867;51.198;11.966;2023-07-13T02:41:30;100252.59;;;21.62;65.84
32733;BME280;11867;51.198;11.966;2023-07-13T02:42:53;100249.84;;;21.77;65.66
32733;BME280;11867;51.198;11.966;2023-07-13T02:44:15;100246.88;;;21.70;66.26
32733;BME280;11867;51.198;11.966;2023-07-13T02:45:43;100246.97;;;21.74;65.00
32733;BME280;11867;51.198;11.966;2023-07-13T02:47:05;100245.19;;;21.82;65.33
32733;BME280;11867;51.198;11.966;2023-07-13T02:48:28;100244.81;;;21.83;65.35
32733;BME280;11867;51.198;11.966;2023-07-13T02:49:50;100254.50;;;21.89;64.84
32733;BME280;11867;51.198;11.966;2023-07-13T02:51:13;100253.94;;;22.00;64.33
32733;BME280;11867;51.198;11.966;2023-07-13T02:52:36;100254.44;;;22.05;63.89
32733;BME280;11867;51.198;11.966;2023-07-13T02:53:59;100253.13;;;21.99;64.22
32733;BME280;11867;51.198;11.966;2023-07-13T02:55:21;100262.19;;;21.96;64.61
32733;BME280;11867;51.198;11.966;2023-07-13T02:56:44;100262.19;;;21.96;64.78
32733;BME280;11867;51.198;11.966;2023-07-13T02:58:06;100269.25;;;21.93;64.13
32733;BME280;11867;51.198;11.966;2023-07-13T02:59:29;100261.97;;;22.05;63.73
32733;BME280;11867;51.198;11.966;2023-07-13T03:00:51;100262.34;;;22.03;64.12
32733;BME280;11867;51.198;11.966;2023-07-13T03:02:14;100269.59;;;22.08;64.04
32733;BME280;11867;51.198;11.966;2023-07-13T03:03:36;100271.41;;;22.00;64.23
32733;BME280;11867;51.198;11.966;2023-07-13T03:05:00;100258.75;;;22.03;63.62
32733;BME280;11867;51.198;11.966;2023-07-13T03:06:22;100271.53;;;22.07;63.97
32733;BME280;11867;51.198;11.966;2023-07-13T03:07:47;100268.16;;;22.14;63.77
32733;BME280;11867;51.198;11.966;2023-07-13T03:09:09;100269.25;;;21.93;64.72
32733;BME280;11867;51.198;11.966;2023-07-13T03:10:34;100274.63;;;21.86;64.40
32733;BME280;11867;51.198;11.966;2023-07-13T03:11:56;100279.47;;;21.89;64.74
32733;BME280;11867;51.198;11.966;2023-07-13T03:13:19;100274.63;;;21.54;65.29
32733;BME280;11867;51.198;11.966;2023-07-13T03:14:41;100280.09;;;21.39;65.79
32733;BME280;11867;51.198;11.966;2023-07-13T03:16:04;100280.84;;;21.35;66.26
32733;BME280;11867;51.198;11.966;2023-07-13T03:17:27;100275.31;;;21.51;65.06
32733;BME280;11867;51.198;11.966;2023-07-13T03:18:50;100274.16;;;21.68;64.86
32733;BME280;11867;51.198;11.966;2023-07-13T03:20:12;100274.06;;;21.81;64.48
32733;BME280;11867;51.198;11.966;2023-07-13T03:21:35;100281.50;;;21.76;64.65
32733;BME280;11867;51.198;11.966;2023-07-13T03:22:58;100280.34;;;21.62;65.81
32733;BME280;11867;51.198;11.966;2023-07-13T03:24:21;100280.53;;;21.69;64.97
32733;BME280;11867;51.198;11.966;2023-07-13T03:25:48;100278.13;;;21.67;65.57
32733;BME280;11867;51.198;11.966;2023-07-13T03:27:09;100286.78;;;21.66;65.68
32733;BME280;11867;51.198;11.966;2023-07-13T03:28:33;100278.22;;;21.71;65.59
32733;BME280;11867;51.198;11.966;2023-07-13T03:29:55;100285.19;;;21.65;65.65
32733;BME280;11867;51.198;11.966;2023-07-13T03:31:20;100290.75;;;21.65;65.34
32733;BME280;11867;51.198;11.966;2023-07-13T03:32:42;100285.25;;;21.68;65.75
32733;BME280;11867;51.198;11.966;2023-07-13T03:34:05;100282.88;;;21.67;65.53
32733;BME280;11867;51.198;11.966;2023-07-13T03:35:27;100284.91;;;21.54;65.83
32733;BME280;11867;51.198;11.966;2023-07-13T03:36:50;100277.19;;;21.47;66.32
32733;BME280;11867;51.198;11.966;2023-07-13T03:38:14;100289.38;;;21.59;65.44
32733;BME280;11867;51.198;11.966;2023-07-13T03:39:36;100292.69;;;21.48;66.19
32733;BME280;11867;51.198;11.966;2023-07-13T03:40:59;100296.88;;;21.42;66.35
32733;BME280;11867;51.198;11.966;2023-07-13T03:42:21;100300.56;;;21.46;66.62
32733;BME280;11867;51.198;11.966;2023-07-13T03:43:44;100301.47;;;21.50;66.31
32733;BME280;11867;51.198;11.966;2023-07-13T03:45:07;100309.56;;;21.43;66.51
32733;BME280;11867;51.198;11.966;2023-07-13T03:46:31;100301.03;;;21.36;66.58
32733;BME280;11867;51.198;11.966;2023-07-13T03:47:53;100313.56;;;21.30;66.43
32733;BME280;11867;51.198;11.966;2023-07-13T03:49:16;100305.00;;;21.07;67.06
32733;BME280;11867;51.198;11.966;2023-07-13T03:50:37;100315.06;;;20.99;67.72
32733;BME280;11867;51.198;11.966;2023-07-13T03:52:01;100316.19;;;20.70;68.33
32733;BME280;11867;51.198;11.966;2023-07-13T03:53:25;100309.00;;;20.56;68.43
32733;BME280;11867;51.198;11.966;2023-07-13T03:54:47;100319.06;;;20.73;68.77
32733;BME280;11867;51.198;11.966;2023-07-13T03:56:10;100318.72;;;20.63;69.16
32733;BME280;11867;51.198;11.966;2023-07-13T03:57:33;100310.66;;;20.45;70.10
32733;BME280;11867;51.198;11.966;2023-07-13T03:58:59;100303.91;;;19.60;72.90
32733;BME280;11867;51.198;11.966;2023-07-13T04:00:21;100311.81;;;19.37;74.68
32733;BME280;11867;51.198;11.966;2023-07-13T04:01:44;100307.31;;;19.45;73.99
32733;BME280;11867;51.198;11.966;2023-07-13T04:03:06;100314.03;;;19.56;73.67
32733;BME280;11867;51.198;11.966;2023-07-13T04:04:29;100314.94;;;19.93;72.29
32733;BME280;11867;51.198;11.966;2023-07-13T04:05:52;100315.63;;;20.03;71.20
32733;BME280;11867;51.198;11.966;2023-07-13T04:07:15;100323.38;;;20.22;71.07
32733;BME280;11867;51.198;11.966;2023-07-13T04:08:38;100320.25;;;20.23;71.05
32733;BME280;11867;51.198;11.966;2023-07-13T04:10:01;100323.13;;;20.39;70.88
32733;BME280;11867;51.198;11.966;2023-07-13T04:11:26;100320.56;;;20.46;70.49
32733;BME280;11867;51.198;11.966;2023-07-13T04:12:50;100322.66;;;20.37;70.25
32733;BME280;11867;51.198;11.966;2023-07-13T04:14:12;100316.53;;;20.31;70.96
32733;BME280;11867;51.198;11.966;2023-07-13T04:15:34;100319.28;;;20.56;70.14
32733;BME280;11867;51.198;11.966;2023-07-13T04:16:56;100323.34;;;20.59;71.12
32733;BME280;11867;51.198;11.966;2023-07-13T04:18:20;100316.34;;;20.61;70.87
32733;BME280;11867;51.198;11.966;2023-07-13T04:19:42;100313.56;;;19.87;73.45
32733;BME280;11867;51.198;11.966;2023-07-13T04:21:05;100317.09;;;19.75;73.68
32733;BME280;11867;51.198;11.966;2023-07-13T04:22:27;100312.38;;;19.88;73.65
32733;BME280;11867;51.198;11.966;2023-07-13T04:23:51;100319.31;;;20.19;72.17
32733;BME280;11867;51.198;11.966;2023-07-13T04:25:13;100316.41;;;20.40;71.73
32733;BME280;11867;51.198;11.966;2023-07-13T04:26:36;100311.25;;;20.51;71.27
32733;BME280;11867;51.198;11.966;2023-07-13T04:28:00;100312.44;;;20.90;70.42
32733;BME280;11867;51.198;11.966;2023-07-13T04:29:22;100315.94;;;20.75;69.80
32733;BME280;11867;51.198;11.966;2023-07-13T04:30:45;100321.59;;;20.54;70.39
32733;BME280;11867;51.198;11.966;2023-07-13T04:32:07;100323.91;;;20.52;71.16
32733;BME280;11867;51.198;11.966;2023-07-13T04:33:31;100318.84;;;20.42;71.48
32733;BME280;11867;51.198;11.966;2023-07-13T04:34:52;100309.63;;;20.25;71.65
32733;BME280;11867;51.198;11.966;2023-07-13T04:36:17;100308.25;;;20.19;71.75
32733;BME280;11867;51.198;11.966;2023-07-13T04:37:40;100310.34;;;20.22;71.96
32733;BME280;11867;51.198;11.966;2023-07-13T04:39:04;100309.41;;;20.18;72.42
32733;BME280;11867;51.198;11.966;2023-07-13T04:40:28;100309.06;;;20.07;72.66
32733;BME280;11867;51.198;11.966;2023-07-13T04:41:50;100309.63;;;20.01;72.87
32733;BME280;11867;51.198;11.966;2023-07-13T04:43:13;100313.78;;;19.94;73.48
32733;BME280;11867;51.198;11.966;2023-07-13T04:44:35;100307.09;;;19.95;73.67
32733;BME280;11867;51.198;11.966;2023-07-13T04:46:03;100311.94;;;19.99;73.13
32733;BME280;11867;51.198;11.966;2023-07-13T04:47:25;100307.44;;;19.94;73.74
32733;BME280;11867;51.198;11.966;2023-07-13T04:48:49;100312.50;;;19.92;72.98
32733;BME280;11867;51.198;11.966;2023-07-13T04:50:13;100313.56;;;20.00;73.01
32733;BME280;11867;51.198;11.966;2023-07-13T04:51:41;100316.09;;;20.17;72.50
32733;BME280;11867;51.198;11.966;2023-07-13T04:53:03;100326.03;;;20.30;72.74
32733;BME280;11867;51.198;11.966;2023-07-13T04:54:28;100333.53;;;20.30;72.95
32733;BME280;11867;51.198;11.966;2023-07-13T04:55:50;100318.75;;;20.26;73.44
32733;BME280;11867;51.198;11.966;2023-07-13T04:57:13;100319.78;;;20.21;73.73
32733;BME280;11867;51.198;11.966;2023-07-13T04:58:35;100315.75;;;20.19;73.68
32733;BME280;11867;51.198;11.966;2023-07-13T04:59:57;100323.94;;;20.03;73.55
32733;BME280;11867;51.198;11.966;2023-07-13T05:01:22;100318.84;;;20.05;72.69
32733;BME280;11867;51.198;11.966;2023-07-13T05:02:46;100325.56;;;20.16;71.82
32733;BME280;11867;51.198;11.966;2023-07-13T05:04:08;100328.66;;;20.27;72.46
32733;BME280;11867;51.198;11.966;2023-07-13T05:05:31;100331.91;;;20.04;72.68
32733;BME280;11867;51.198;11.966;2023-07-13T05:06:53;100333.63;;;20.09;72.64
32733;BME280;11867;51.198;11.966;2023-07-13T05:08:16;100331.91;;;20.16;72.73
32733;BME280;11867;51.198;11.966;2023-07-13T05:09:39;100325.31;;;20.21;71.98
32733;BME280;11867;51.198;11.966;2023-07-13T05:11:04;100330.84;;;20.21;72.57
32733;BME280;11867;51.198;11.966;2023-07-13T05:12:26;100330.50;;;19.98;73.40
32733;BME280;11867;51.198;11.966;2023-07-13T05:13:49;100336.25;;;19.81;73.96
32733;BME280;11867;51.198;11.966;2023-07-13T05:15:11;100336.47;;;19.75;74.66
32733;BME280;11867;51.198;11.966;2023-07-13T05:16:34;100337.09;;;19.60;74.66
32733;BME280;11867;51.198;11.966;2023-07-13T05:17:56;100337.00;;;19.69;74.58
32733;BME280;11867;51.198;11.966;2023-07-13T05:19:19;100330.34;;;19.82;74.70
32733;BME280;11867;51.198;11.966;2023-07-13T05:20:40;100336.81;;;19.86;74.03
32733;BME280;11867;51.198;11.966;2023-07-13T05:22:04;100333.53;;;20.05;73.97
32733;BME280;11867;51.198;11.966;2023-07-13T05:23:26;100333.75;;;20.25;72.63
32733;BME280;11867;51.198;11.966;2023-07-13T05:24:50;100336.31;;;20.30;72.94
32733;BME280;11867;51.198;11.966;2023-07-13T05:26:12;100337.91;;;20.43;72.15
32733;BME280;11867;51.198;11.966;2023-07-13T05:27:36;100335.56;;;20.58;71.80
32733;BME280;11867;51.198;11.966;2023-07-13T05:28:58;100343.19;;;20.48;72.68
32733;BME280;11867;51.198;11.966;2023-07-13T05:30:21;100348.63;;;20.57;73.17
32733;BME280;11867;51.198;11.966;2023-07-13T05:31:43;100339.84;;;20.80;71.92
32733;BME280;11867;51.198;11.966;2023-07-13T05:33:06;100338.78;;;20.84;72.10
32733;BME280;11867;51.198;11.966;2023-07-13T05:34:28;100348.69;;;20.85;72.13
32733;BME280;11867;51.198;11.966;2023-07-13T05:35:51;100342.81;;;20.87;72.27
32733;BME280;11867;51.198;11.966;2023-07-13T05:37:13;100341.22;;;21.14;70.23
32733;BME280;11867;51.198;11.966;2023-07-13T05:38:36;100338.78;;;21.12;70.15
32733;BME280;11867;51.198;11.966;2023-07-13T05:39:59;100343.84;;;21.23;70.00
32733;BME280;11867;51.198;11.966;2023-07-13T05:41:22;100348.34;;;21.27;71.47
32733;BME280;11867;51.198;11.966;2023-07-13T05:42:44;100344.63;;;21.35;70.13
32733;BME280;11867;51.198;11.966;2023-07-13T05:44:07;100347.28;;;21.32;70.42
32733;BME280;11867;51.198;11.966;2023-07-13T05:45:30;100337.63;;;21.54;70.96
32733;BME280;11867;51.198;11.966;2023-07-13T05:46:53;100345.69;;;21.59;69.21
32733;BME280;11867;51.198;11.966;2023-07-13T05:48:16;100347.50;;;21.83;68.67
32733;BME280;11867;51.198;11.966;2023-07-13T05:49:39;100351.53;;;21.86;68.67
32733;BME280;11867;51.198;11.966;2023-07-13T05:51:01;100357.59;;;21.75;69.13
32733;BME280;11867;51.198;11.966;2023-07-13T05:52:25;100350.25;;;21.67;69.59
32733;BME280;11867;51.198;11.966;2023-07-13T05:53:47;100349.47;;;21.67;69.37
32733;BME280;11867;51.198;11.966;2023-07-13T05:55:11;100355.53;;;21.56;69.72
32733;BME280;11867;51.198;11.966;2023-07-13T05:56:33;100354.34;;;21.58;69.33
32733;BME280;11867;51.198;11.966;2023-07-13T05:57:56;100356.16;;;21.66;68.88
32733;BME280;11867;51.198;11.966;2023-07-13T05:59:19;100355.53;;;21.72;69.57
32733;BME280;11867;51.198;11.966;2023-07-13T06:00:43;100356.88;;;21.63;68.85
32733;BME280;11867;51.198;11.966;2023-07-13T06:02:05;100358.84;;;21.78;69.17
32733;BME280;11867;51.198;11.966;2023-07-13T06:03:29;100362.22;;;22.00;68.54
32733;BME280;11867;51.198;11.966;2023-07-13T06:04:51;100361.56;;;22.06;68.57
32733;BME280;11867;51.198;11.966;2023-07-13T06:06:15;100358.44;;;22.08;67.94
32733;BME280;11867;51.198;11.966;2023-07-13T06:07:38;100361.38;;;22.15;67.39
32733;BME280;11867;51.198;11.966;2023-07-13T06:09:00;100362.06;;;22.24;67.15
32733;BME280;11867;51.198;11.966;2023-07-13T06:10:25;100356.50;;;22.24;67.25
32733;BME280;11867;51.198;11.966;2023-07-13T06:11:47;100360.69;;;22.34;66.74
32733;BME280;11867;51.198;11.966;2023-07-13T06:13:10;100361.22;;;22.24;67.02
32733;BME280;11867;51.198;11.966;2023-07-13T06:14:32;100357.72;;;22.43;67.61
32733;BME280;11867;51.198;11.966;2023-07-13T06:15:55;100355.94;;;22.34;66.94
32733;BME280;11867;51.198;11.966;2023-07-13T06:17:17;100362.66;;;22.02;67.95
32733;BME280;11867;51.198;11.966;2023-07-13T06:18:40;100360.03;;;22.09;67.87
32733;BME280;11867;51.198;11.966;2023-07-13T06:20:02;100356.28;;;22.01;68.15
32733;BME280;11867;51.198;11.966;2023-07-13T06:21:25;100362.72;;;21.89;68.57
32733;BME280;11867;51.198;11.966;2023-07-13T06:22:47;100365.16;;;22.23;68.38
32733;BME280;11867;51.198;11.966;2023-07-13T06:24:10;100355.56;;;22.20;68.84
32733;BME280;11867;51.198;11.966;2023-07-13T06:25:34;100356.22;;;22.29;68.94
32733;BME280;11867;51.198;11.966;2023-07-13T06:26:56;100355.72;;;22.59;68.16
32733;BME280;11867;51.198;11.966;2023-07-13T06:28:18;100349.69;;;22.73;66.12
32733;BME280;11867;51.198;11.966;2023-07-13T06:29:41;100355.47;;;22.48;66.33
32733;BME280;11867;51.198;11.966;2023-07-13T06:31:08;100349.53;;;22.66;66.23
32733;BME280;11867;51.198;11.966;2023-07-13T06:32:31;100358.91;;;22.77;66.17
32733;BME280;11867;51.198;11.966;2023-07-13T06:33:54;100355.72;;;22.59;65.82
32733;BME280;11867;51.198;11.966;2023-07-13T06:35:16;100349.34;;;22.59;66.72
32733;BME280;11867;51.198;11.966;2023-07-13T06:36:39;100359.69;;;22.77;65.12
32733;BME280;11867;51.198;11.966;2023-07-13T06:38:01;100356.41;;;23.07;63.70
32733;BME280;11867;51.198;11.966;2023-07-13T06:39:24;100352.44;;;23.08;63.07
32733;BME280;11867;51.198;11.966;2023-07-13T06:40:47;100358.84;;;22.93;64.07
32733;BME280;11867;51.198;11.966;2023-07-13T06:42:11;100363.63;;;22.92;64.05
32733;BME280;11867;51.198;11.966;2023-07-13T06:43:35;100366.84;;;22.94;63.66
32733;BME280;11867;51.198;11.966;2023-07-13T06:44:58;100356.09;;;23.12;64.27
32733;BME280;11867;51.198;11.966;2023-07-13T06:46:21;100364.91;;;23.14;63.65
32733;BME280;11867;51.198;11.966;2023-07-13T06:47:44;100362.47;;;23.13;63.71
32733;BME280;11867;51.198;11.966;2023-07-13T06:49:08;100371.41;;;23.22;63.05
32733;BME280;11867;51.198;11.966;2023-07-13T06:50:31;100371.78;;;23.21;62.57
32733;BME280;11867;51.198;11.966;2023-07-13T06:51:53;100370.16;;;23.39;62.38
32733;BME280;11867;51.198;11.966;2023-07-13T06:53:17;100366.28;;;23.44;62.00
32733;BME280;11867;51.198;11.966;2023-07-13T06:54:39;100370.81;;;23.52;61.48
32733;BME280;11867;51.198;11.966;2023-07-13T06:56:04;100374.84;;;23.35;61.28
32733;BME280;11867;51.198;11.966;2023-07-13T06:57:26;100372.00;;;23.31;61.32
32733;BME280;11867;51.198;11.966;2023-07-13T06:58:49;100367.09;;;23.25;61.27
32733;BME280;11867;51.198;11.966;2023-07-13T07:00:12;100368.41;;;23.50;61.37
32733;BME280;11867;51.198;11.966;2023-07-13T07:01:36;100376.88;;;23.57;61.24
32733;BME280;11867;51.198;11.966;2023-07-13T07:03:01;100374.81;;;23.74;59.79
32733;BME280;11867;51.198;11.966;2023-07-13T07:04:24;100382.44;;;23.77;59.10
32733;BME280;11867;51.198;11.966;2023-07-13T07:05:46;100378.94;;;23.80;59.25
32733;BME280;11867;51.198;11.966;2023-07-13T07:07:09;100383.03;;;23.86;59.78
32733;BME280;11867;51.198;11.966;2023-07-13T07:08:31;100389.28;;;24.03;59.75